createdAt,value
2023-03-09T00:01:38.849Z,99427.06
2023-03-09T00:04:09.388Z,99429.41
2023-03-09T00:06:39.042Z,99430.91
2023-03-09T00:09:08.968Z,99424.34
2023-03-09T00:11:37.210Z,99431.75
2023-03-09T00:14:06.339Z,99434.81
2023-03-09T00:16:34.671Z,99424.81
2023-03-09T00:19:03.464Z,99425.50
2023-03-09T00:21:39.787Z,99430.56
2023-03-09T00:24:11.801Z,99433.78
2023-03-09T00:26:41.774Z,99435.47
2023-03-09T00:29:11.519Z,99441.38
2023-03-09T00:31:40.768Z,99436.63
2023-03-09T00:34:09.878Z,99430.72
2023-03-09T00:36:38.865Z,99425.31
2023-03-09T00:39:07.761Z,99432.44
2023-03-09T00:41:37.464Z,99430.91
2023-03-09T00:44:07.694Z,99429.06
2023-03-09T00:46:36.461Z,99433.63
2023-03-09T00:49:07.558Z,99431.75
2023-03-09T00:51:37.375Z,99427.22
2023-03-09T00:54:06.985Z,99427.88
2023-03-09T00:56:36.968Z,99426.34
2023-03-09T00:59:05.992Z,99432.94
2023-03-09T01:01:34.552Z,99434.97
2023-03-09T01:04:04.054Z,99424.34
2023-03-09T01:06:33.403Z,99426.34
2023-03-09T01:09:02.423Z,99429.75
2023-03-09T01:11:32.135Z,99431.97
2023-03-09T01:14:02.048Z,99421.16
2023-03-09T01:16:30.751Z,99423.31
2023-03-09T01:18:59.202Z,99419.94
2023-03-09T01:21:27.359Z,99425.84
2023-03-09T01:23:57.272Z,99421.66
2023-03-09T01:26:25.550Z,99426.88
2023-03-09T01:28:53.763Z,99427.88
2023-03-09T01:31:23.417Z,99429.91
2023-03-09T01:33:52.636Z,99431.97
2023-03-09T01:36:21.596Z,99429.91
2023-03-09T01:38:50.233Z,99432.13
2023-03-09T01:41:20.663Z,99426.19
2023-03-09T01:43:50.389Z,99418.28
2023-03-09T01:46:49.854Z,99424.50
2023-03-09T01:49:33.597Z,99427.22
2023-03-09T01:52:11.512Z,99420.47
2023-03-09T01:54:46.257Z,99417.44
2023-03-09T01:57:20.452Z,99415.25
2023-03-09T01:59:50.962Z,99423.34
2023-03-09T02:02:24.007Z,99423.69
2023-03-09T02:04:58.901Z,99419.31
2023-03-09T02:07:28.349Z,99419.81
2023-03-09T02:10:02.819Z,99423.19
2023-03-09T02:12:33.198Z,99434.00
2023-03-09T02:15:05.536Z,99439.91
2023-03-09T02:17:36.402Z,99448.50
2023-03-09T02:20:14.359Z,99449.34
2023-03-09T02:22:45.026Z,99449.84
2023-03-09T02:25:23.719Z,99451.56
2023-03-09T02:27:55.046Z,99458.47
2023-03-09T02:30:26.366Z,99467.41
2023-03-09T02:33:05.596Z,99468.13
2023-03-09T02:35:35.318Z,99471.81
2023-03-09T02:38:04.422Z,99468.59
2023-03-09T02:40:39.344Z,99466.75
2023-03-09T02:43:14.728Z,99465.03
2023-03-09T02:45:45.254Z,99474.69
2023-03-09T02:48:14.301Z,99475.69
2023-03-09T02:50:44.203Z,99475.69
2023-03-09T02:53:13.263Z,99473.31
2023-03-09T02:55:41.856Z,99478.53
2023-03-09T02:58:13.824Z,99490.88
2023-03-09T03:00:42.097Z,99499.63
2023-03-09T03:03:10.740Z,99498.81
2023-03-09T03:05:39.221Z,99505.72
2023-03-09T03:08:08.551Z,99505.88
2023-03-09T03:10:36.773Z,99513.13
2023-03-09T03:13:06.557Z,99514.50
2023-03-09T03:15:36.626Z,99503.84
2023-03-09T03:18:06.692Z,99502.00
2023-03-09T03:20:36.508Z,99508.41
2023-03-09T03:23:06.525Z,99509.91
2023-03-09T03:25:43.224Z,99517.16
2023-03-09T03:28:12.809Z,99523.25
2023-03-09T03:30:43.086Z,99520.06
2023-03-09T03:33:12.806Z,99524.13
2023-03-09T03:35:42.767Z,99529.00
2023-03-09T03:38:12.529Z,99539.44
2023-03-09T03:40:41.461Z,99531.72
2023-03-09T03:43:12.143Z,99537.09
2023-03-09T03:45:44.868Z,99540.47
2023-03-09T03:48:13.389Z,99533.22
2023-03-09T03:50:42.016Z,99552.81
2023-03-09T03:53:10.407Z,99547.56
2023-03-09T03:55:39.237Z,99549.59
2023-03-09T03:58:08.018Z,99544.53
2023-03-09T04:00:38.061Z,99545.69
2023-03-09T04:03:12.623Z,99543.66
2023-03-09T04:05:47.417Z,99539.97
2023-03-09T04:08:17.256Z,99547.34
2023-03-09T04:10:47.639Z,99544.19
2023-03-09T04:13:17.801Z,99548.72
2023-03-09T04:15:46.986Z,99542.66
2023-03-09T04:18:16.910Z,99543.34
2023-03-09T04:20:46.632Z,99549.44
2023-03-09T04:23:16.299Z,99558.56
2023-03-09T04:25:57.685Z,99558.38
2023-03-09T04:28:31.821Z,99559.38
2023-03-09T04:31:01.306Z,99572.06
2023-03-09T04:33:34.715Z,99567.47
2023-03-09T04:36:05.768Z,99569.50
2023-03-09T04:38:37.577Z,99567.47
2023-03-09T04:41:07.985Z,99555.69
2023-03-09T04:43:36.883Z,99547.25
2023-03-09T04:46:07.364Z,99567.66
2023-03-09T04:48:38.583Z,99584.72
2023-03-09T04:51:09.738Z,99591.47
2023-03-09T04:53:38.301Z,99591.63
2023-03-09T04:56:08.342Z,99590.44
2023-03-09T04:58:44.059Z,99595.31
2023-03-09T05:01:13.123Z,99599.38
2023-03-09T05:03:43.390Z,99612.88
2023-03-09T05:06:13.342Z,99600.59
2023-03-09T05:08:42.829Z,99615.09
2023-03-09T05:11:11.150Z,99609.69
2023-03-09T05:13:41.591Z,99599.75
2023-03-09T05:16:14.646Z,99612.91
2023-03-09T05:18:50.405Z,99608.50
2023-03-09T05:21:21.051Z,99622.53
2023-03-09T05:23:50.583Z,99611.72
2023-03-09T05:26:19.309Z,99609.16
2023-03-09T05:28:52.296Z,99616.59
2023-03-09T05:31:21.813Z,99624.84
2023-03-09T05:33:54.059Z,99621.47
2023-03-09T05:36:24.421Z,99629.06
2023-03-09T05:38:55.176Z,99637.19
2023-03-09T05:41:24.338Z,99641.91
2023-03-09T05:44:00.334Z,99641.06
2023-03-09T05:46:30.570Z,99650.53
2023-03-09T05:49:00.349Z,99653.38
2023-03-09T05:51:29.585Z,99657.44
2023-03-09T05:53:58.212Z,99654.94
2023-03-09T05:56:27.753Z,99654.03
2023-03-09T05:59:00.562Z,99651.34
2023-03-09T06:01:30.415Z,99656.00
2023-03-09T06:04:20.396Z,99657.56
2023-03-09T06:06:53.644Z,99658.75
2023-03-09T06:09:26.841Z,99667.53
2023-03-09T06:11:56.020Z,99664.16
2023-03-09T06:14:25.324Z,99675.50
2023-03-09T06:16:54.904Z,99683.59
2023-03-09T06:19:24.523Z,99681.75
2023-03-09T06:21:55.790Z,99680.72
2023-03-09T06:24:24.591Z,99679.56
2023-03-09T06:26:53.986Z,99686.97
2023-03-09T06:29:32.107Z,99688.28
2023-03-09T06:32:01.468Z,99687.28
2023-03-09T06:34:34.863Z,99684.25
2023-03-09T06:37:07.368Z,99692.34
2023-03-09T06:39:36.140Z,99703.97
2023-03-09T06:42:07.006Z,99706.19
2023-03-09T06:44:43.886Z,99714.50
2023-03-09T06:47:14.164Z,99703.16
2023-03-09T06:49:47.017Z,99702.69
2023-03-09T06:52:21.599Z,99703.88
2023-03-09T06:54:50.460Z,99703.00
2023-03-09T06:57:22.125Z,99707.38
2023-03-09T06:59:50.812Z,99708.75
2023-03-09T07:02:19.369Z,99703.69
2023-03-09T07:04:49.510Z,99710.25
2023-03-09T07:07:19.691Z,99712.13
2023-03-09T07:09:47.927Z,99714.66
2023-03-09T07:12:16.756Z,99724.94
2023-03-09T07:14:45.778Z,99737.09
2023-03-09T07:17:14.845Z,99745.69
2023-03-09T07:19:43.301Z,99739.13
2023-03-09T07:22:14.113Z,99748.22
2023-03-09T07:24:43.301Z,99753.63
2023-03-09T07:27:14.370Z,99752.63
2023-03-09T07:29:42.829Z,99757.88
2023-03-09T07:32:12.298Z,99758.91
2023-03-09T07:34:40.810Z,99757.75
2023-03-09T07:37:09.494Z,99758.41
2023-03-09T07:39:39.353Z,99777.59
2023-03-09T07:42:08.691Z,99781.34
2023-03-09T07:45:13.545Z,99787.19
2023-03-09T07:47:42.881Z,99787.88
2023-03-09T07:50:13.105Z,99790.81
2023-03-09T07:52:41.706Z,99793.03
2023-03-09T07:55:14.180Z,99795.03
2023-03-09T07:57:44.388Z,99794.84
2023-03-09T08:00:21.700Z,99801.28
2023-03-09T08:02:50.100Z,99803.81
2023-03-09T08:05:19.650Z,99800.97
2023-03-09T08:07:49.622Z,99805.31
2023-03-09T08:10:22.445Z,99810.75
2023-03-09T08:12:52.455Z,99805.31
2023-03-09T08:15:21.719Z,99823.91
2023-03-09T08:17:51.142Z,99829.94
2023-03-09T08:20:20.361Z,99835.38
2023-03-09T08:22:49.300Z,99835.59
2023-03-09T08:25:20.996Z,99832.09
2023-03-09T08:27:49.814Z,99839.88
2023-03-09T08:30:22.053Z,99847.00
2023-03-09T08:32:51.686Z,99852.47
2023-03-09T08:35:21.666Z,99855.31
2023-03-09T08:37:50.836Z,99863.63
2023-03-09T08:40:21.745Z,99875.44
2023-03-09T08:42:50.554Z,99870.88
2023-03-09T08:45:19.017Z,99879.00
2023-03-09T08:47:49.284Z,99878.19
2023-03-09T08:50:22.953Z,99883.59
2023-03-09T08:52:52.303Z,99894.09
2023-03-09T08:55:22.946Z,99890.94
2023-03-09T08:57:52.766Z,99893.44
2023-03-09T09:00:23.001Z,99886.06
2023-03-09T09:02:52.502Z,99885.88
2023-03-09T09:05:22.344Z,99879.25
2023-03-09T09:07:51.600Z,99879.28
2023-03-09T09:10:34.845Z,99887.25
2023-03-09T09:13:05.546Z,99882.97
2023-03-09T09:15:34.896Z,99890.44
2023-03-09T09:18:03.941Z,99897.44
2023-03-09T09:20:32.374Z,99894.47
2023-03-09T09:23:00.920Z,99894.50
2023-03-09T09:25:30.838Z,99896.56
2023-03-09T09:27:59.106Z,99894.19
2023-03-09T09:30:28.058Z,99889.69
2023-03-09T09:32:56.840Z,99899.31
2023-03-09T09:35:26.029Z,99911.16
2023-03-09T09:37:55.939Z,99904.34
2023-03-09T09:40:26.050Z,99893.59
2023-03-09T09:42:57.971Z,99880.41
2023-03-09T09:45:32.251Z,99892.28
2023-03-09T09:48:03.602Z,99889.72
2023-03-09T09:50:45.240Z,99901.25
2023-03-09T09:53:24.195Z,99905.81
2023-03-09T09:55:54.799Z,99899.06
2023-03-09T09:58:35.018Z,99901.25
2023-03-09T10:01:12.529Z,99896.66
2023-03-09T10:03:47.811Z,99908.84
2023-03-09T10:06:19.880Z,99909.38
2023-03-09T10:08:51.170Z,99900.41
2023-03-09T10:11:25.959Z,99901.56
2023-03-09T10:14:01.739Z,99907.84
2023-03-09T10:16:36.757Z,99914.13
2023-03-09T10:19:16.234Z,99915.19
2023-03-09T10:21:51.111Z,99919.91
2023-03-09T10:24:25.011Z,99925.38
2023-03-09T10:26:59.479Z,99926.38
2023-03-09T10:29:42.489Z,99913.19
2023-03-09T10:32:18.114Z,99911.72
2023-03-09T10:34:55.840Z,99911.84
2023-03-09T10:37:27.103Z,99918.47
2023-03-09T10:39:56.904Z,99918.47
2023-03-09T10:42:28.400Z,99918.78
2023-03-09T10:45:10.494Z,99930.31
2023-03-09T10:48:00.960Z,99930.66
2023-03-09T10:50:33.146Z,99925.44
2023-03-09T10:53:29.775Z,99921.25
2023-03-09T10:56:07.135Z,99919.91
2023-03-09T10:58:36.655Z,99921.59
2023-03-09T11:01:21.004Z,99923.28
2023-03-09T11:03:49.393Z,99923.81
2023-03-09T11:06:33.937Z,99921.97
2023-03-09T11:09:15.846Z,99917.59
2023-03-09T11:11:48.393Z,99920.78
2023-03-09T11:14:28.463Z,99926.06
2023-03-09T11:17:02.116Z,99922.88
2023-03-09T11:19:32.529Z,99919.69
2023-03-09T11:22:12.379Z,99924.03
2023-03-09T11:24:46.242Z,99915.06
2023-03-09T11:27:21.156Z,99921.47
2023-03-09T11:29:56.787Z,99935.56
2023-03-09T11:32:26.546Z,99920.66
2023-03-09T11:34:55.827Z,99916.41
2023-03-09T11:37:31.056Z,99912.47
2023-03-09T11:40:08.839Z,99925.34
2023-03-09T11:42:42.944Z,99928.91
2023-03-09T11:45:20.786Z,99936.72
2023-03-09T11:47:57.226Z,99936.38
2023-03-09T11:50:33.096Z,99935.88
2023-03-09T11:53:08.046Z,99938.91
2023-03-09T11:55:40.494Z,99947.69
2023-03-09T11:58:15.412Z,99938.91
2023-03-09T12:00:48.113Z,99939.31
2023-03-09T12:03:21.251Z,99945.03
2023-03-09T12:05:54.998Z,99938.28
2023-03-09T12:08:31.705Z,99937.72
2023-03-09T12:11:08.673Z,99932.50
2023-03-09T12:13:41.152Z,99923.06
2023-03-09T12:16:20.431Z,99910.88
2023-03-09T12:19:01.220Z,99919.69
2023-03-09T12:21:33.792Z,99917.13
2023-03-09T12:24:20.506Z,99928.47
2023-03-09T12:27:00.179Z,99933.41
2023-03-09T12:29:35.582Z,99937.09
2023-03-09T12:32:42.222Z,99923.59
2023-03-09T12:35:44.893Z,99905.47
2023-03-09T12:38:23.900Z,99904.63
2023-03-09T12:40:52.985Z,99906.34
2023-03-09T12:43:53.794Z,99903.09
2023-03-09T12:47:00.964Z,99891.41
2023-03-09T12:49:35.245Z,99890.91
2023-03-09T12:52:46.957Z,99892.09
2023-03-09T12:55:20.852Z,99886.34
2023-03-09T12:57:51.954Z,99891.91
2023-03-09T13:00:31.059Z,99893.78
2023-03-09T13:03:05.852Z,99880.72
2023-03-09T13:05:44.312Z,99882.94
2023-03-09T13:08:29.617Z,99881.59
2023-03-09T13:11:33.207Z,99887.50
2023-03-09T13:14:03.930Z,99889.72
2023-03-09T13:16:52.898Z,99881.59
2023-03-09T13:19:56.766Z,99886.50
2023-03-09T13:22:43.800Z,99895.66
2023-03-09T13:25:34.873Z,99902.94
2023-03-09T13:28:23.378Z,99899.34
2023-03-09T13:31:00.200Z,99897.69
2023-03-09T13:33:32.011Z,99892.91
2023-03-09T13:36:24.698Z,99899.53
2023-03-09T13:38:59.044Z,99898.34
2023-03-09T13:41:30.056Z,99894.25
2023-03-09T13:44:00.372Z,99894.13
2023-03-09T13:46:32.800Z,99895.78
2023-03-09T13:49:09.018Z,99887.78
2023-03-09T13:51:50.533Z,99897.94
2023-03-09T13:54:31.589Z,99892.72
2023-03-09T13:57:05.375Z,99891.00
2023-03-09T13:59:55.499Z,99893.56
2023-03-09T14:02:25.727Z,99893.56
2023-03-09T14:05:42.426Z,99888.97
2023-03-09T14:07:58.215Z,99884.91
2023-03-09T14:10:30.768Z,99885.41
2023-03-09T14:13:03.217Z,99882.03
2023-03-09T14:15:37.864Z,99879.66
2023-03-09T14:18:07.046Z,99879.84
2023-03-09T14:20:41.104Z,99875.44
2023-03-09T14:23:20.957Z,99866.31
2023-03-09T14:25:50.969Z,99861.75
2023-03-09T14:28:27.095Z,99852.66
2023-03-09T14:31:15.771Z,99859.41
2023-03-09T14:33:59.686Z,99856.66
2023-03-09T14:36:31.054Z,99854.47
2023-03-09T14:39:02.312Z,99844.13
2023-03-09T14:41:32.500Z,99843.63
2023-03-09T14:44:01.002Z,99827.56
2023-03-09T14:46:32.037Z,99820.09
2023-03-09T14:49:04.676Z,99822.47
2023-03-09T14:51:35.838Z,99825.84
2023-03-09T14:54:12.463Z,99821.63
2023-03-09T14:56:40.953Z,99819.25
2023-03-09T14:59:13.332Z,99819.06
2023-03-09T15:01:58.766Z,99822.94
2023-03-09T15:04:29.922Z,99827.53
2023-03-09T15:06:59.086Z,99829.56
2023-03-09T15:09:27.323Z,99832.97
2023-03-09T15:11:58.937Z,99840.03
2023-03-09T15:14:31.380Z,99825.84
2023-03-09T15:17:04.071Z,99838.69
2023-03-09T15:19:32.860Z,99848.00
2023-03-09T15:22:03.698Z,99843.97
2023-03-09T15:24:33.684Z,99838.03
2023-03-09T15:27:04.046Z,99838.03
2023-03-09T15:29:33.417Z,99835.16
2023-03-09T15:32:08.405Z,99835.66
2023-03-09T15:34:39.035Z,99852.38
2023-03-09T15:37:08.299Z,99846.31
2023-03-09T15:39:37.645Z,99833.28
2023-03-09T15:42:06.603Z,99835.66
2023-03-09T15:44:36.761Z,99834.28
2023-03-09T15:47:07.057Z,99835.66
2023-03-09T15:49:35.923Z,99832.47
2023-03-09T15:52:04.392Z,99840.22
2023-03-09T15:54:33.559Z,99844.63
2023-03-09T15:57:02.032Z,99854.94
2023-03-09T15:59:30.455Z,99852.91
2023-03-09T16:02:00.123Z,99834.31
2023-03-09T16:04:31.860Z,99840.72
2023-03-09T16:07:02.700Z,99846.50
2023-03-09T16:09:32.507Z,99829.06
2023-03-09T16:12:01.839Z,99825.84
2023-03-09T16:14:32.437Z,99834.66
2023-03-09T16:17:02.085Z,99819.25
2023-03-09T16:19:32.805Z,99821.63
2023-03-09T16:22:01.332Z,99825.31
2023-03-09T16:24:30.350Z,99823.28
2023-03-09T16:26:59.491Z,99815.88
2023-03-09T16:29:28.379Z,99810.91
2023-03-09T16:32:00.975Z,99816.19
2023-03-09T16:34:35.825Z,99808.38
2023-03-09T16:37:06.606Z,99809.56
2023-03-09T16:39:35.357Z,99810.41
2023-03-09T16:42:04.828Z,99809.41
2023-03-09T16:44:34.299Z,99813.44
2023-03-09T16:47:14.018Z,99817.34
2023-03-09T16:49:45.360Z,99811.06
2023-03-09T16:52:14.174Z,99815.63
2023-03-09T16:54:43.207Z,99818.19
2023-03-09T16:57:12.552Z,99791.78
2023-03-09T16:59:40.902Z,99792.66
2023-03-09T17:02:12.597Z,99792.66
2023-03-09T17:04:40.971Z,99794.66
2023-03-09T17:07:12.396Z,99796.38
2023-03-09T17:09:41.187Z,99790.09
2023-03-09T17:12:11.697Z,99796.50
2023-03-09T17:14:40.188Z,99795.34
2023-03-09T17:17:10.248Z,99796.69
2023-03-09T17:19:39.193Z,99789.75
2023-03-09T17:22:08.127Z,99794.31
2023-03-09T17:24:39.453Z,99787.41
2023-03-09T17:27:08.015Z,99779.59
2023-03-09T17:29:36.601Z,99782.81
2023-03-09T17:32:08.630Z,99785.84
2023-03-09T17:34:37.857Z,99784.31
2023-03-09T17:37:06.605Z,99788.88
2023-03-09T17:39:35.327Z,99796.16
2023-03-09T17:42:06.614Z,99793.97
2023-03-09T17:44:39.413Z,99786.19
2023-03-09T17:47:09.883Z,99789.41
2023-03-09T17:49:38.621Z,99781.09
2023-03-09T17:52:08.310Z,99785.50
2023-03-09T17:54:36.653Z,99785.84
2023-03-09T17:57:09.241Z,99791.06
2023-03-09T17:59:37.869Z,99783.13
2023-03-09T18:02:08.262Z,99784.13
2023-03-09T18:04:37.598Z,99783.09
2023-03-09T18:07:18.042Z,99788.69
2023-03-09T18:09:47.033Z,99782.25
2023-03-09T18:12:16.847Z,99773.28
2023-03-09T18:14:46.194Z,99772.63
2023-03-09T18:17:15.214Z,99765.69
2023-03-09T18:19:43.340Z,99768.91
2023-03-09T18:22:14.864Z,99776.50
2023-03-09T18:24:44.151Z,99773.81
2023-03-09T18:27:13.842Z,99764.13
2023-03-09T18:29:44.915Z,99760.53
2023-03-09T18:32:13.258Z,99761.91
2023-03-09T18:34:44.748Z,99750.25
2023-03-09T18:37:12.956Z,99755.28
2023-03-09T18:39:41.205Z,99755.28
2023-03-09T18:42:11.048Z,99753.06
2023-03-09T18:44:39.237Z,99758.47
2023-03-09T18:47:10.210Z,99757.97
2023-03-09T18:49:38.305Z,99743.13
2023-03-09T18:52:07.922Z,99734.34
2023-03-09T18:54:36.531Z,99735.69
2023-03-09T18:57:05.928Z,99739.44
2023-03-09T18:59:34.442Z,99716.94
2023-03-09T19:02:04.633Z,99696.00
2023-03-09T19:04:34.529Z,99711.63
2023-03-09T19:07:02.866Z,99706.94
2023-03-09T19:09:31.893Z,99697.13
2023-03-09T19:12:00.705Z,99698.97
2023-03-09T19:14:29.726Z,99694.38
2023-03-09T19:16:58.043Z,99688.47
2023-03-09T19:19:26.392Z,99687.66
2023-03-09T19:21:56.281Z,99679.03
2023-03-09T19:24:24.561Z,99665.69
2023-03-09T19:26:53.377Z,99673.09
2023-03-09T19:29:21.843Z,99667.78
2023-03-09T19:31:50.160Z,99668.97
2023-03-09T19:34:18.418Z,99656.16
2023-03-09T19:36:46.957Z,99640.97
2023-03-09T19:39:16.771Z,99636.41
2023-03-09T19:41:44.760Z,99628.63
2023-03-09T19:44:13.024Z,99624.56
2023-03-09T19:46:43.777Z,99628.59
2023-03-09T19:49:12.874Z,99626.22
2023-03-09T19:51:41.599Z,99613.50
2023-03-09T19:54:13.407Z,99616.03
2023-03-09T19:56:44.174Z,99606.25
2023-03-09T19:59:16.014Z,99600.34
2023-03-09T20:01:46.935Z,99600.25
2023-03-09T20:04:18.776Z,99586.94
2023-03-09T20:06:50.339Z,99583.94
2023-03-09T20:09:19.316Z,99590.88
2023-03-09T20:11:49.358Z,99589.50
2023-03-09T20:14:17.811Z,99573.34
2023-03-09T20:16:46.579Z,99572.34
2023-03-09T20:19:16.650Z,99561.75
2023-03-09T20:21:45.459Z,99563.06
2023-03-09T20:24:16.737Z,99556.28
2023-03-09T20:26:47.095Z,99550.38
2023-03-09T20:29:18.309Z,99549.88
2023-03-09T20:31:49.627Z,99560.28
2023-03-09T20:34:18.921Z,99556.97
2023-03-09T20:36:47.115Z,99547.50
2023-03-09T20:39:15.744Z,99551.56
2023-03-09T20:41:44.462Z,99550.53
2023-03-09T20:44:13.327Z,99541.63
2023-03-09T20:46:43.044Z,99544.69
2023-03-09T20:49:12.367Z,99539.97
2023-03-09T20:51:40.700Z,99537.94
2023-03-09T20:54:09.870Z,99535.25
2023-03-09T20:56:38.307Z,99534.22
2023-03-09T20:59:07.375Z,99532.34
2023-03-09T21:01:35.825Z,99528.47
2023-03-09T21:04:06.639Z,99511.06
2023-03-09T21:06:35.069Z,99507.19
2023-03-09T21:09:03.764Z,99503.63
2023-03-09T21:11:32.847Z,99497.91
2023-03-09T21:14:03.927Z,99491.19
2023-03-09T21:16:33.201Z,99490.13
2023-03-09T21:19:04.817Z,99493.19
2023-03-09T21:21:36.310Z,99490.47
2023-03-09T21:24:05.444Z,99490.50
2023-03-09T21:26:34.514Z,99485.91
2023-03-09T21:29:04.650Z,99477.78
2023-03-09T21:31:33.531Z,99471.75
2023-03-09T21:34:02.368Z,99459.28
2023-03-09T21:36:30.666Z,99457.25
2023-03-09T21:39:00.813Z,99456.94
2023-03-09T21:41:29.557Z,99445.44
2023-03-09T21:43:58.392Z,99439.53
2023-03-09T21:46:28.116Z,99433.47
2023-03-09T21:48:57.222Z,99438.69
2023-03-09T21:51:26.390Z,99426.91
2023-03-09T21:53:57.320Z,99425.38
2023-03-09T21:56:27.501Z,99413.56
2023-03-09T21:58:57.958Z,99405.97
2023-03-09T22:01:28.136Z,99406.81
2023-03-09T22:03:57.014Z,99396.66
2023-03-09T22:06:27.700Z,99389.25
2023-03-09T22:08:56.753Z,99388.56
2023-03-09T22:11:29.530Z,99374.75
2023-03-09T22:13:57.882Z,99366.31
2023-03-09T22:16:29.044Z,99367.31
2023-03-09T22:18:59.790Z,99364.78
2023-03-09T22:21:28.699Z,99355.50
2023-03-09T22:23:57.520Z,99356.53
2023-03-09T22:26:27.457Z,99353.81
2023-03-09T22:28:56.876Z,99350.78
2023-03-09T22:31:25.863Z,99340.84
2023-03-09T22:33:58.635Z,99333.06
2023-03-09T22:36:27.285Z,99325.97
2023-03-09T22:38:55.816Z,99326.16
2023-03-09T22:41:26.526Z,99320.94
2023-03-09T22:43:56.844Z,99304.56
2023-03-09T22:46:27.474Z,99299.69
2023-03-09T22:48:56.422Z,99294.25
2023-03-09T22:51:26.504Z,99282.78
2023-03-09T22:53:56.853Z,99276.22
2023-03-09T22:56:26.511Z,99271.97
2023-03-09T22:58:56.903Z,99262.41
2023-03-09T23:01:26.862Z,99262.00
2023-03-09T23:03:57.721Z,99266.03
2023-03-09T23:06:28.469Z,99258.47
2023-03-09T23:08:58.289Z,99255.09
2023-03-09T23:11:28.393Z,99250.53
2023-03-09T23:13:58.246Z,99243.44
2023-03-09T23:16:26.701Z,99240.28
2023-03-09T23:18:55.697Z,99225.94
2023-03-09T23:21:24.740Z,99223.06
2023-03-09T23:23:53.610Z,99225.75
2023-03-09T23:26:22.884Z,99226.41
2023-03-09T23:28:51.892Z,99221.38
2023-03-09T23:31:22.264Z,99212.94
2023-03-09T23:33:51.011Z,99217.84
2023-03-09T23:36:23.110Z,99207.72
2023-03-09T23:38:53.775Z,99204.53
2023-03-09T23:41:22.072Z,99200.97
2023-03-09T23:43:50.289Z,99190.88
2023-03-09T23:46:19.838Z,99188.34
2023-03-09T23:48:51.891Z,99178.06
2023-03-09T23:51:22.228Z,99167.13
2023-03-09T23:53:50.646Z,99161.72
2023-03-09T23:56:19.833Z,99163.75
2023-03-09T23:58:49.818Z,99165.25
